createdAt,value
2018-12-26T00:02:12.226Z,75.32
2018-12-26T00:04:36.613Z,75.59
2018-12-26T00:07:01.042Z,75.89
2018-12-26T00:09:25.430Z,75.69
2018-12-26T00:11:49.874Z,75.49
2018-12-26T00:14:14.291Z,75.43
2018-12-26T00:16:51.167Z,75.27
2018-12-26T00:19:15.547Z,75.06
2018-12-26T00:21:39.945Z,74.99
2018-12-26T00:24:04.388Z,75.11
2018-12-26T00:26:28.856Z,75.02
2018-12-26T00:28:53.279Z,75.35
2018-12-26T00:31:17.675Z,75.25
2018-12-26T00:33:42.161Z,75.16
2018-12-26T00:36:06.577Z,74.77
2018-12-26T00:38:31.002Z,75.02
2018-12-26T00:40:55.397Z,74.83
2018-12-26T00:43:19.825Z,74.75
2018-12-26T00:45:44.234Z,74.91
2018-12-26T00:48:08.637Z,75.12
2018-12-26T00:50:33.046Z,75.22
2018-12-26T00:52:57.448Z,75.05
2018-12-26T00:55:21.864Z,74.81
2018-12-26T00:57:46.268Z,74.87
2018-12-26T01:00:10.694Z,74.92
2018-12-26T01:02:35.103Z,75.24
2018-12-26T01:04:59.517Z,75.18
2018-12-26T01:07:23.917Z,75.31
2018-12-26T01:09:48.416Z,75.11
2018-12-26T01:12:12.816Z,74.93
2018-12-26T01:14:37.227Z,74.80
2018-12-26T01:17:01.639Z,74.91
2018-12-26T01:19:26.034Z,75.11
2018-12-26T01:21:50.455Z,75.02
2018-12-26T01:24:14.843Z,75.09
2018-12-26T01:26:39.244Z,75.18
2018-12-26T01:29:03.647Z,75.26
2018-12-26T01:31:28.058Z,75.27
2018-12-26T01:33:52.436Z,74.93
2018-12-26T01:36:16.863Z,74.84
2018-12-26T01:38:41.292Z,74.43
2018-12-26T01:41:05.679Z,74.56
2018-12-26T01:43:30.120Z,74.66
2018-12-26T01:45:59.806Z,74.80
2018-12-26T01:48:24.216Z,74.94
2018-12-26T01:50:48.603Z,75.11
2018-12-26T01:55:49.104Z,74.93
2018-12-26T02:00:52.875Z,74.82
2018-12-26T02:03:17.286Z,74.71
2018-12-26T02:05:41.689Z,74.58
2018-12-26T02:08:06.072Z,75.07
2018-12-26T02:10:30.487Z,75.00
2018-12-26T02:12:54.915Z,74.57
2018-12-26T02:15:19.304Z,74.89
2018-12-26T02:17:43.716Z,75.12
2018-12-26T02:20:08.195Z,74.87
2018-12-26T02:22:32.601Z,74.82
2018-12-26T02:24:57.025Z,75.10
2018-12-26T02:27:26.692Z,75.52
2018-12-26T02:29:51.122Z,75.62
2018-12-26T02:32:15.504Z,75.66
2018-12-26T02:34:39.894Z,75.84
2018-12-26T02:37:04.289Z,75.86
2018-12-26T02:39:28.693Z,75.95
2018-12-26T02:44:29.108Z,76.37
2018-12-26T02:46:53.551Z,76.57
2018-12-26T02:49:17.936Z,76.70
2018-12-26T02:51:42.353Z,76.88
2018-12-26T02:54:06.755Z,76.54
2018-12-26T02:56:31.237Z,76.47
2018-12-26T02:58:55.626Z,76.57
2018-12-26T03:01:20.003Z,76.70
2018-12-26T03:03:44.416Z,76.81
2018-12-26T03:06:08.835Z,76.81
2018-12-26T03:08:33.249Z,77.03
2018-12-26T03:10:57.716Z,77.05
2018-12-26T03:13:22.371Z,77.61
2018-12-26T03:15:46.932Z,78.09
2018-12-26T03:18:11.352Z,78.21
2018-12-26T03:20:35.753Z,78.67
2018-12-26T03:23:00.172Z,78.79
2018-12-26T03:25:24.568Z,79.42
2018-12-26T03:27:49.053Z,79.45
2018-12-26T03:30:13.446Z,79.55
2018-12-26T03:32:37.851Z,80.04
2018-12-26T03:35:02.279Z,80.93
2018-12-26T03:37:26.737Z,81.54
2018-12-26T03:39:51.298Z,81.49
2018-12-26T03:42:15.778Z,81.63
2018-12-26T03:44:51.508Z,81.51
2018-12-26T03:47:27.482Z,82.36
2018-12-26T03:49:51.915Z,81.99
2018-12-26T03:52:16.322Z,82.85
2018-12-26T03:54:40.741Z,83.20
2018-12-26T03:57:06.424Z,83.68
2018-12-26T03:59:36.851Z,83.12
2018-12-26T04:02:01.318Z,83.43
2018-12-26T04:04:25.721Z,83.44
2018-12-26T04:06:50.128Z,83.80
2018-12-26T04:09:14.519Z,83.95
2018-12-26T04:11:39.071Z,84.68
2018-12-26T04:14:03.527Z,84.50
2018-12-26T04:16:27.960Z,84.67
2018-12-26T04:18:52.358Z,84.48
2018-12-26T04:21:16.948Z,84.59
2018-12-26T04:23:41.355Z,84.74
2018-12-26T04:26:05.767Z,84.35
2018-12-26T04:28:30.198Z,84.36
2018-12-26T04:30:54.577Z,84.29
2018-12-26T04:33:31.014Z,84.40
2018-12-26T04:35:55.400Z,84.25
2018-12-26T04:38:19.822Z,84.61
2018-12-26T04:40:44.217Z,84.77
2018-12-26T04:43:08.781Z,84.52
2018-12-26T04:45:33.115Z,84.58
2018-12-26T04:47:57.500Z,84.75
2018-12-26T04:52:58.011Z,85.10
2018-12-26T04:55:22.415Z,84.79
2018-12-26T04:57:46.807Z,85.25
2018-12-26T05:00:11.222Z,85.25
2018-12-26T05:02:35.617Z,85.44
2018-12-26T05:05:00.010Z,85.86
2018-12-26T05:07:24.407Z,85.63
2018-12-26T05:09:48.846Z,86.03
2018-12-26T05:12:13.250Z,85.98
2018-12-26T05:14:37.647Z,86.05
2018-12-26T05:17:02.058Z,86.26
2018-12-26T05:19:26.479Z,86.33
2018-12-26T05:21:50.894Z,85.83
2018-12-26T05:24:15.288Z,86.29
2018-12-26T05:26:39.690Z,86.12
2018-12-26T05:29:04.094Z,86.06
2018-12-26T05:31:28.497Z,86.04
2018-12-26T05:33:52.882Z,85.80
2018-12-26T05:36:17.310Z,85.69
2018-12-26T05:38:41.696Z,85.70
2018-12-26T05:41:06.102Z,86.24
2018-12-26T05:43:30.526Z,86.00
2018-12-26T05:45:54.921Z,86.28
2018-12-26T05:48:19.327Z,86.19
2018-12-26T05:50:43.715Z,85.93
2018-12-26T05:53:08.118Z,85.96
2018-12-26T05:55:32.520Z,86.36
2018-12-26T06:00:33.048Z,86.67
2018-12-26T06:02:57.463Z,86.72
2018-12-26T06:05:21.847Z,86.64
2018-12-26T06:07:46.241Z,86.24
2018-12-26T06:10:10.655Z,86.39
2018-12-26T06:12:35.046Z,86.05
2018-12-26T06:14:59.445Z,85.87
2018-12-26T06:17:23.838Z,86.38
2018-12-26T06:19:48.302Z,85.71
2018-12-26T06:22:12.657Z,86.05
2018-12-26T06:24:37.070Z,85.63
2018-12-26T06:27:01.469Z,86.08
2018-12-26T06:29:25.850Z,86.00
2018-12-26T06:31:50.245Z,86.40
2018-12-26T06:34:14.716Z,86.23
2018-12-26T06:36:39.127Z,86.06
2018-12-26T06:39:14.421Z,86.47
2018-12-26T06:41:38.821Z,86.11
2018-12-26T06:44:03.219Z,86.18
2018-12-26T06:46:27.645Z,86.44
2018-12-26T06:48:52.035Z,86.74
2018-12-26T06:51:16.519Z,86.51
2018-12-26T06:53:40.895Z,86.85
2018-12-26T06:56:05.273Z,86.22
2018-12-26T06:58:29.675Z,85.82
2018-12-26T07:00:54.064Z,86.39
2018-12-26T07:03:18.473Z,86.25
2018-12-26T07:05:42.859Z,86.44
2018-12-26T07:08:07.260Z,86.10
2018-12-26T07:10:31.655Z,86.41
2018-12-26T07:12:56.056Z,86.18
2018-12-26T07:15:20.447Z,85.98
2018-12-26T07:17:44.876Z,86.08
2018-12-26T07:20:09.261Z,85.47
2018-12-26T07:22:33.654Z,85.49
2018-12-26T07:24:58.076Z,85.46
2018-12-26T07:27:34.420Z,85.72
2018-12-26T07:29:58.821Z,85.71
2018-12-26T07:32:23.235Z,85.80
2018-12-26T07:34:47.642Z,85.98
2018-12-26T07:37:12.023Z,86.51
2018-12-26T07:39:36.425Z,87.13
2018-12-26T07:42:00.817Z,87.12
2018-12-26T07:44:25.272Z,87.14
2018-12-26T07:46:49.672Z,87.03
2018-12-26T07:49:14.062Z,87.36
2018-12-26T07:51:38.476Z,87.72
2018-12-26T07:54:02.928Z,87.78
2018-12-26T07:56:27.292Z,87.63
2018-12-26T07:58:51.678Z,87.57
2018-12-26T08:01:16.089Z,87.50
2018-12-26T08:03:40.492Z,87.28
2018-12-26T08:06:04.924Z,87.25
2018-12-26T08:08:29.307Z,86.91
2018-12-26T08:10:53.707Z,86.98
2018-12-26T08:13:18.104Z,86.84
2018-12-26T08:15:42.488Z,86.57
2018-12-26T08:18:06.895Z,86.79
2018-12-26T08:20:31.288Z,86.90
2018-12-26T08:22:55.692Z,87.22
2018-12-26T08:25:20.072Z,87.20
2018-12-26T08:27:44.476Z,86.73
2018-12-26T08:30:08.865Z,86.54
2018-12-26T08:32:33.290Z,86.34
2018-12-26T08:34:57.673Z,86.64
2018-12-26T08:37:22.048Z,86.13
2018-12-26T08:39:46.443Z,85.82
2018-12-26T08:42:10.842Z,85.68
2018-12-26T08:44:35.245Z,85.86
2018-12-26T08:46:59.660Z,86.24
2018-12-26T08:49:24.056Z,86.15
2018-12-26T08:51:48.452Z,85.70
2018-12-26T08:54:12.863Z,85.12
2018-12-26T08:56:37.256Z,85.74
2018-12-26T08:59:01.759Z,85.85
2018-12-26T09:01:26.318Z,85.71
2018-12-26T09:03:50.687Z,85.17
2018-12-26T09:06:15.099Z,85.19
2018-12-26T09:08:39.481Z,85.46
2018-12-26T09:11:03.901Z,85.27
2018-12-26T09:13:28.309Z,85.25
2018-12-26T09:15:52.729Z,85.28
2018-12-26T09:18:17.127Z,85.38
2018-12-26T09:20:41.556Z,84.04
2018-12-26T09:23:05.954Z,83.41
2018-12-26T09:25:30.429Z,83.39
2018-12-26T09:27:54.859Z,84.11
2018-12-26T09:30:19.248Z,84.53
2018-12-26T09:32:43.676Z,84.93
2018-12-26T09:38:04.553Z,85.11
2018-12-26T09:40:28.980Z,85.10
2018-12-26T09:42:53.376Z,85.42
2018-12-26T09:45:17.793Z,85.50
2018-12-26T09:47:42.215Z,85.97
2018-12-26T09:53:03.946Z,86.43
2018-12-26T09:55:28.332Z,86.85
2018-12-26T09:57:52.852Z,86.24
2018-12-26T10:00:17.263Z,86.17
2018-12-26T10:02:41.636Z,86.05
2018-12-26T10:05:26.850Z,85.85
2018-12-26T10:07:51.257Z,85.58
2018-12-26T10:10:15.660Z,85.78
2018-12-26T10:12:40.067Z,86.16
2018-12-26T10:15:15.988Z,86.15
2018-12-26T10:17:40.390Z,86.51
2018-12-26T10:23:01.637Z,86.09
2018-12-26T10:25:26.054Z,85.80
2018-12-26T10:27:50.435Z,86.05
2018-12-26T10:30:14.843Z,86.21
2018-12-26T10:32:39.271Z,85.75
2018-12-26T10:35:03.838Z,86.22
2018-12-26T10:37:28.229Z,86.36
2018-12-26T10:39:52.626Z,86.56
2018-12-26T10:42:17.043Z,86.10
2018-12-26T10:44:41.422Z,85.67
2018-12-26T10:47:06.875Z,86.14
2018-12-26T10:49:31.300Z,86.28
2018-12-26T10:51:55.706Z,85.71
2018-12-26T10:54:20.202Z,85.40
2018-12-26T10:56:44.600Z,86.02
2018-12-26T10:59:10.282Z,86.68
2018-12-26T11:01:34.903Z,85.63
2018-12-26T11:03:59.341Z,85.82
2018-12-26T11:06:23.741Z,86.54
2018-12-26T11:08:48.144Z,86.05
2018-12-26T11:11:12.549Z,86.26
2018-12-26T11:13:36.962Z,85.83
2018-12-26T11:16:01.425Z,85.70
2018-12-26T11:18:25.901Z,85.95
2018-12-26T11:20:50.322Z,85.46
2018-12-26T11:23:14.750Z,86.55
2018-12-26T11:25:39.167Z,86.85
2018-12-26T11:28:03.590Z,86.86
2018-12-26T11:30:28.019Z,87.52
2018-12-26T11:32:52.415Z,87.46
2018-12-26T11:35:16.810Z,87.38
2018-12-26T11:37:41.282Z,87.45
2018-12-26T11:40:26.515Z,87.21
2018-12-26T11:42:50.930Z,86.96
2018-12-26T11:45:15.354Z,87.46
2018-12-26T11:47:39.792Z,87.13
2018-12-26T11:52:43.810Z,87.10
2018-12-26T11:55:08.207Z,87.61
2018-12-26T11:57:32.589Z,87.57
2018-12-26T11:59:56.999Z,87.47
2018-12-26T12:02:21.420Z,87.16
2018-12-26T12:04:45.831Z,87.61
2018-12-26T12:07:10.322Z,87.71
2018-12-26T12:09:34.740Z,87.64
2018-12-26T12:11:59.141Z,87.01
2018-12-26T12:14:23.612Z,87.09
2018-12-26T12:16:48.042Z,87.42
2018-12-26T12:19:12.439Z,86.79
2018-12-26T12:21:36.991Z,87.49
2018-12-26T12:24:01.416Z,87.58
2018-12-26T12:26:25.841Z,87.70
2018-12-26T12:28:50.459Z,87.38
2018-12-26T12:31:14.829Z,87.37
2018-12-26T12:33:39.230Z,87.74
2018-12-26T12:36:03.698Z,88.01
2018-12-26T12:38:28.130Z,88.38
2018-12-26T12:40:52.531Z,88.01
2018-12-26T12:43:16.952Z,88.20
2018-12-26T12:45:41.349Z,88.05
2018-12-26T12:48:05.758Z,88.02
2018-12-26T12:50:30.229Z,87.61
2018-12-26T12:52:54.656Z,88.16
2018-12-26T12:55:19.055Z,88.06
2018-12-26T12:57:43.496Z,88.04
2018-12-26T13:03:04.888Z,86.84
2018-12-26T13:05:29.282Z,88.23
2018-12-26T13:07:53.667Z,87.77
2018-12-26T13:10:18.090Z,87.32
2018-12-26T13:12:42.505Z,87.60
2018-12-26T13:15:06.922Z,87.35
2018-12-26T13:17:31.326Z,86.91
2018-12-26T13:19:55.760Z,87.63
2018-12-26T13:22:20.159Z,87.12
2018-12-26T13:24:44.684Z,87.68
2018-12-26T13:27:09.073Z,87.30
2018-12-26T13:29:33.509Z,87.84
2018-12-26T13:31:57.927Z,87.53
2018-12-26T13:34:22.322Z,87.50
2018-12-26T13:36:46.742Z,87.00
2018-12-26T13:39:11.165Z,86.56
2018-12-26T13:41:35.602Z,86.51
2018-12-26T13:44:00.019Z,87.00
2018-12-26T13:46:24.443Z,86.09
2018-12-26T13:48:48.854Z,87.17
2018-12-26T13:51:20.841Z,87.29
2018-12-26T13:53:45.235Z,87.43
2018-12-26T13:56:09.623Z,87.80
2018-12-26T13:58:34.026Z,87.84
2018-12-26T14:00:58.424Z,88.10
2018-12-26T14:03:22.858Z,88.00
2018-12-26T14:05:47.258Z,88.08
2018-12-26T14:08:11.681Z,87.74
2018-12-26T14:10:36.097Z,88.31
2018-12-26T14:13:00.540Z,88.31
2018-12-26T14:15:25.005Z,87.78
2018-12-26T14:17:49.527Z,88.44
2018-12-26T14:20:26.642Z,88.56
2018-12-26T14:22:51.129Z,88.57
2018-12-26T14:25:15.535Z,88.99
2018-12-26T14:27:39.945Z,88.85
2018-12-26T14:33:00.831Z,88.62
2018-12-26T14:35:25.318Z,88.86
2018-12-26T14:37:49.721Z,88.71
2018-12-26T14:40:14.148Z,88.47
2018-12-26T14:42:38.566Z,88.13
2018-12-26T14:45:03.000Z,87.01
2018-12-26T14:47:27.469Z,87.18
2018-12-26T14:49:51.908Z,87.14
2018-12-26T14:52:16.314Z,86.57
2018-12-26T14:54:40.730Z,87.14
2018-12-26T14:57:05.202Z,86.86
2018-12-26T14:59:29.620Z,87.11
2018-12-26T15:01:54.031Z,86.45
2018-12-26T15:04:18.414Z,86.43
2018-12-26T15:06:42.832Z,87.23
2018-12-26T15:12:04.094Z,86.47
2018-12-26T15:14:28.488Z,86.11
2018-12-26T15:16:52.899Z,86.71
2018-12-26T15:22:13.936Z,87.12
2018-12-26T15:24:38.340Z,87.67
2018-12-26T15:27:02.874Z,87.38
2018-12-26T15:29:27.266Z,86.56
2018-12-26T15:31:51.691Z,86.64
2018-12-26T15:34:16.073Z,86.38
2018-12-26T15:36:40.755Z,86.22
2018-12-26T15:42:01.671Z,86.41
2018-12-26T15:44:26.080Z,86.39
2018-12-26T15:46:50.507Z,85.81
2018-12-26T15:49:14.912Z,85.91
2018-12-26T15:51:39.316Z,87.37
2018-12-26T15:54:03.732Z,87.10
2018-12-26T15:56:28.155Z,86.15
2018-12-26T15:58:53.159Z,85.92
2018-12-26T16:01:17.540Z,86.95
2018-12-26T16:03:41.930Z,87.08
2018-12-26T16:06:06.365Z,87.18
2018-12-26T16:08:30.781Z,87.03
2018-12-26T16:10:55.210Z,86.83
2018-12-26T16:13:19.626Z,86.66
2018-12-26T16:15:44.057Z,86.44
2018-12-26T16:18:08.434Z,86.32
2018-12-26T16:20:32.885Z,87.26
2018-12-26T16:22:57.281Z,87.31
2018-12-26T16:25:21.679Z,87.30
2018-12-26T16:27:46.097Z,87.14
2018-12-26T16:30:10.516Z,87.57
2018-12-26T16:32:34.917Z,86.66
2018-12-26T16:34:59.312Z,86.03
2018-12-26T16:37:23.738Z,86.57
2018-12-26T16:39:48.139Z,86.60
2018-12-26T16:42:12.549Z,86.45
2018-12-26T16:44:36.976Z,85.98
2018-12-26T16:47:01.376Z,86.13
2018-12-26T16:49:25.803Z,85.46
2018-12-26T16:51:50.214Z,85.55
2018-12-26T16:54:14.638Z,85.89
2018-12-26T16:56:39.060Z,85.52
2018-12-26T16:59:03.456Z,85.53
2018-12-26T17:01:27.884Z,86.09
2018-12-26T17:03:52.332Z,86.45
2018-12-26T17:06:16.733Z,86.57
2018-12-26T17:08:41.147Z,86.98
2018-12-26T17:11:05.597Z,86.57
2018-12-26T17:13:29.977Z,85.77
2018-12-26T17:15:54.376Z,85.78
2018-12-26T17:18:18.812Z,85.32
2018-12-26T17:20:43.212Z,85.82
2018-12-26T17:23:07.635Z,84.83
2018-12-26T17:25:32.045Z,84.81
2018-12-26T17:27:56.471Z,84.54
2018-12-26T17:30:20.889Z,84.29
2018-12-26T17:32:45.329Z,84.02
2018-12-26T17:35:09.739Z,84.23
2018-12-26T17:37:34.144Z,84.42
2018-12-26T17:39:58.544Z,84.41
2018-12-26T17:42:22.943Z,84.44
2018-12-26T17:44:47.374Z,85.01
2018-12-26T17:47:11.783Z,85.43
2018-12-26T17:49:48.691Z,85.06
2018-12-26T17:52:13.105Z,84.78
2018-12-26T17:57:34.099Z,85.08
2018-12-26T18:02:55.479Z,85.39
2018-12-26T18:05:19.892Z,85.03
2018-12-26T18:07:44.326Z,84.74
2018-12-26T18:10:08.784Z,84.49
2018-12-26T18:12:33.207Z,84.67
2018-12-26T18:14:57.636Z,84.53
2018-12-26T18:17:22.079Z,84.32
2018-12-26T18:19:46.513Z,84.45
2018-12-26T18:22:10.961Z,85.00
2018-12-26T18:24:35.379Z,84.99
2018-12-26T18:26:59.807Z,84.98
2018-12-26T18:29:24.215Z,85.16
2018-12-26T18:31:48.630Z,85.82
2018-12-26T18:34:13.025Z,85.68
2018-12-26T18:36:37.678Z,85.63
2018-12-26T18:39:02.059Z,85.73
2018-12-26T18:41:26.461Z,86.15
2018-12-26T18:43:50.952Z,86.33
2018-12-26T18:46:15.365Z,86.15
2018-12-26T18:48:39.791Z,86.15
2018-12-26T18:51:04.188Z,85.59
2018-12-26T18:53:28.605Z,85.72
2018-12-26T18:55:53.025Z,85.66
2018-12-26T18:58:17.442Z,85.09
2018-12-26T19:00:42.007Z,85.65
2018-12-26T19:03:06.401Z,86.17
2018-12-26T19:05:30.850Z,86.67
2018-12-26T19:07:55.378Z,86.53
2018-12-26T19:10:19.757Z,86.24
2018-12-26T19:12:44.292Z,86.54
2018-12-26T19:15:08.765Z,87.69
2018-12-26T19:17:33.639Z,86.94
2018-12-26T19:19:58.400Z,87.45
2018-12-26T19:22:22.762Z,86.34
2018-12-26T19:24:47.203Z,85.62
2018-12-26T19:27:11.634Z,85.18
2018-12-26T19:29:36.069Z,85.68
2018-12-26T19:32:00.497Z,86.06
2018-12-26T19:34:24.893Z,86.38
2018-12-26T19:36:49.377Z,86.38
2018-12-26T19:39:26.287Z,86.95
2018-12-26T19:41:50.703Z,86.78
2018-12-26T19:44:15.125Z,86.37
2018-12-26T19:46:39.657Z,86.54
2018-12-26T19:49:04.067Z,85.34
2018-12-26T19:51:28.483Z,84.98
2018-12-26T19:53:52.895Z,85.35
2018-12-26T19:56:19.443Z,85.35
2018-12-26T19:58:49.088Z,85.48
2018-12-26T20:01:13.484Z,85.45
2018-12-26T20:03:37.938Z,85.21
2018-12-26T20:06:02.338Z,85.78
2018-12-26T20:08:26.761Z,85.11
2018-12-26T20:10:51.174Z,84.69
2018-12-26T20:13:15.601Z,84.81
2018-12-26T20:18:15.895Z,85.35
2018-12-26T20:20:40.293Z,85.19
2018-12-26T20:23:04.754Z,84.99
2018-12-26T20:25:29.169Z,85.07
2018-12-26T20:27:53.575Z,85.12
2018-12-26T20:30:17.992Z,85.16
2018-12-26T20:32:42.408Z,85.12
2018-12-26T20:35:06.830Z,84.55
2018-12-26T20:37:31.228Z,83.92
2018-12-26T20:39:55.651Z,85.06
2018-12-26T20:42:20.063Z,84.76
2018-12-26T20:44:44.516Z,84.61
2018-12-26T20:47:09.007Z,84.72
2018-12-26T20:49:33.420Z,84.74
2018-12-26T20:51:57.830Z,84.89
2018-12-26T20:54:40.147Z,84.54
2018-12-26T20:57:04.553Z,84.72
2018-12-26T20:59:35.029Z,84.76
2018-12-26T21:02:05.684Z,84.55
2018-12-26T21:04:31.329Z,85.30
2018-12-26T21:06:55.766Z,84.99
2018-12-26T21:09:20.188Z,84.60
2018-12-26T21:11:44.612Z,84.66
2018-12-26T21:14:09.031Z,84.48
2018-12-26T21:16:33.448Z,84.73
2018-12-26T21:18:57.877Z,84.00
2018-12-26T21:21:22.296Z,84.18
2018-12-26T21:23:46.743Z,83.58
2018-12-26T21:26:11.147Z,84.19
2018-12-26T21:28:35.578Z,85.02
2018-12-26T21:30:59.991Z,85.06
2018-12-26T21:33:24.412Z,84.21
2018-12-26T21:35:48.819Z,84.77
2018-12-26T21:38:13.254Z,85.70
2018-12-26T21:40:37.677Z,85.96
2018-12-26T21:43:02.149Z,85.04
2018-12-26T21:45:26.644Z,85.75
2018-12-26T21:47:51.072Z,85.86
2018-12-26T21:50:15.509Z,85.74
2018-12-26T21:55:37.311Z,84.64
2018-12-26T21:58:01.733Z,84.78
2018-12-26T22:00:26.163Z,85.60
2018-12-26T22:02:50.572Z,85.00
2018-12-26T22:05:15.010Z,85.57
2018-12-26T22:07:39.381Z,85.74
2018-12-26T22:13:00.614Z,86.94
2018-12-26T22:15:25.026Z,86.17
2018-12-26T22:17:49.437Z,86.13
2018-12-26T22:20:13.874Z,86.32
2018-12-26T22:22:38.314Z,86.73
2018-12-26T22:25:02.708Z,87.11
2018-12-26T22:27:27.142Z,87.03
2018-12-26T22:29:51.526Z,86.86
2018-12-26T22:32:15.947Z,86.37
2018-12-26T22:34:40.355Z,87.01
2018-12-26T22:37:04.812Z,86.73
2018-12-26T22:39:29.201Z,86.25
2018-12-26T22:44:29.856Z,85.75
2018-12-26T22:46:54.279Z,85.37
2018-12-26T22:49:39.481Z,85.26
2018-12-26T22:52:03.914Z,85.84
2018-12-26T22:54:28.308Z,85.33
2018-12-26T22:56:52.727Z,85.52
2018-12-26T22:59:17.130Z,84.98
2018-12-26T23:01:41.519Z,85.52
2018-12-26T23:04:05.940Z,85.18
2018-12-26T23:06:30.343Z,84.57
2018-12-26T23:08:54.796Z,85.00
2018-12-26T23:11:19.197Z,84.88
2018-12-26T23:13:43.586Z,85.68
2018-12-26T23:16:08.015Z,85.89
2018-12-26T23:18:32.409Z,85.78
2018-12-26T23:20:56.865Z,85.01
2018-12-26T23:23:21.256Z,84.78
2018-12-26T23:25:45.689Z,84.60
2018-12-26T23:28:10.104Z,84.51
2018-12-26T23:30:34.502Z,85.85
2018-12-26T23:32:58.904Z,86.13
2018-12-26T23:35:23.317Z,85.42
2018-12-26T23:37:47.740Z,85.01
2018-12-26T23:40:12.129Z,85.39
2018-12-26T23:42:36.545Z,84.99
2018-12-26T23:45:00.945Z,85.08
2018-12-26T23:47:25.355Z,85.43
2018-12-26T23:49:49.751Z,85.25
2018-12-26T23:52:14.188Z,85.93
2018-12-26T23:54:38.591Z,86.23
2018-12-26T23:57:03.099Z,86.17
2018-12-26T23:59:27.490Z,85.56
